KIWD/IWD METAR and TAF weather

Enter ICAO airport designator
Station Type Date Time Source
KIWD METAR 2019/02/21 00:07 UTC NOAA

KIWD 210007Z AUTO 07004KT 2 1/2SM -SN BR BKN021 OVC028 M06/M06 A2958 RMK AO2 VIS 2V4 FZRANO PNO $


Station Type Date Time Source
KIWD Decoded METAR 2019/02/21 00:07 UTC NOAA

Ironwood, Gogebic-Iron County Airport, MI, United States (KIWD) 46-32N 090-08W
Feb 20, 2019 - 07:07 PM EST / 2019.02.21 0007 UTC
Wind: from the ENE (070 degrees) at 5 MPH (4 KT):0
Visibility: 2 1/2 mile(s):0
Sky conditions: overcast
Weather: light snow; mist
Temperature: 21 F (-6 C)
Windchill: 14 F (-10 C):1
Dew Point: 21 F (-6 C)
Relative Humidity: 100%
Pressure (altimeter): 29.58 in. Hg (1001 hPa)
ob: KIWD 210007Z AUTO 07004KT 2 1/2SM -SN BR BKN021 OVC028 M06/M06 A2958 RMK AO2 VIS 2V4 FZRANO PNO
cycle: 0

Station Type Date Time Source
KIWD TAF 2019/02/20 21:36 UTC NOAA

TAF
AMD KIWD 202034Z 2021/2118 09010KT 1/2SM SN OVC005
TEMPO 2021/2101 1/4SM +SN
FM210200 VRB04KT 2SM -SN OVC008
FM210400 VRB03KT 4SM -SHSN OVC010
FM210900 26005KT 4SM -SHSN OVC012


Example: see airport list